Terminal Aerodrome Forecast
Issued by NWS

Home | Current Version | Previous Version | Text Only | Print | Product List | Glossary On
Versions: 1 2 3 4 5 6 7 8 9 10 11 12 13 14 15 16 17 18 19 20 21 22
193
FTUS41 KBGM 230143 AAA
TAFRME
TAF AMD
KRME 230143Z 2302/2324 10007KT P6SM OVC011
      TEMPO 2302/2306 BKN009
     FM230600 10011G19KT P6SM OVC015
     FM231000 10012G21KT P6SM BKN045
     FM231800 10016G28KT P6SM -RAPL OVC035
     FM232100 09016G28KT 5SM -RASNPL OVC040=

USA.gov is the U.S. government's official web portal to all federal, state and local government web resources and services.